sensor_id;sensor_type;location;lat;lon;timestamp;temperature;humidity
25250;DHT22;13201;51.148;13.738;2023-02-25T00:00:44;3.80;99.90
25250;DHT22;13201;51.148;13.738;2023-02-25T00:03:10;3.80;99.90
25250;DHT22;13201;51.148;13.738;2023-02-25T00:05:40;3.90;99.90
25250;DHT22;13201;51.148;13.738;2023-02-25T00:08:06;3.90;99.90
25250;DHT22;13201;51.148;13.738;2023-02-25T00:10:32;3.80;99.90
25250;DHT22;13201;51.148;13.738;2023-02-25T00:12:58;3.80;99.90
25250;DHT22;13201;51.148;13.738;2023-02-25T00:15:24;3.80;99.90
25250;DHT22;13201;51.148;13.738;2023-02-25T00:17:50;3.90;99.90
25250;DHT22;13201;51.148;13.738;2023-02-25T00:20:17;3.90;99.90
25250;DHT22;13201;51.148;13.738;2023-02-25T00:22:47;3.90;99.90
25250;DHT22;13201;51.148;13.738;2023-02-25T00:25:13;3.80;99.90
25250;DHT22;13201;51.148;13.738;2023-02-25T00:27:41;3.80;99.90
25250;DHT22;13201;51.148;13.738;2023-02-25T00:30:08;3.70;99.90
25250;DHT22;13201;51.148;13.738;2023-02-25T00:32:36;3.70;99.90
25250;DHT22;13201;51.148;13.738;2023-02-25T00:35:02;3.70;99.90
25250;DHT22;13201;51.148;13.738;2023-02-25T00:37:28;3.70;99.90
25250;DHT22;13201;51.148;13.738;2023-02-25T00:39:54;3.80;99.90
25250;DHT22;13201;51.148;13.738;2023-02-25T00:42:19;3.70;99.90
25250;DHT22;13201;51.148;13.738;2023-02-25T00:44:47;3.60;99.90
25250;DHT22;13201;51.148;13.738;2023-02-25T00:47:17;3.70;99.90
25250;DHT22;13201;51.148;13.738;2023-02-25T00:49:44;3.70;99.90
25250;DHT22;13201;51.148;13.738;2023-02-25T00:52:14;3.70;99.90
25250;DHT22;13201;51.148;13.738;2023-02-25T00:54:40;3.70;99.90
25250;DHT22;13201;51.148;13.738;2023-02-25T00:57:06;3.60;99.90
25250;DHT22;13201;51.148;13.738;2023-02-25T00:59:32;3.60;99.90
25250;DHT22;13201;51.148;13.738;2023-02-25T01:01:57;3.60;99.90
25250;DHT22;13201;51.148;13.738;2023-02-25T01:04:23;3.60;99.90
25250;DHT22;13201;51.148;13.738;2023-02-25T01:30:55;3.40;99.90
25250;DHT22;13201;51.148;13.738;2023-02-25T01:33:21;3.50;99.90
25250;DHT22;13201;51.148;13.738;2023-02-25T01:35:47;3.70;99.90
25250;DHT22;13201;51.148;13.738;2023-02-25T01:38:12;3.60;99.90
25250;DHT22;13201;51.148;13.738;2023-02-25T01:40:38;3.70;99.90
25250;DHT22;13201;51.148;13.738;2023-02-25T01:43:04;3.80;99.90
25250;DHT22;13201;51.148;13.738;2023-02-25T01:45:32;3.70;99.90
25250;DHT22;13201;51.148;13.738;2023-02-25T01:48:09;3.80;99.90
25250;DHT22;13201;51.148;13.738;2023-02-25T01:50:48;3.70;99.90
25250;DHT22;13201;51.148;13.738;2023-02-25T01:53:20;3.70;99.90
25250;DHT22;13201;51.148;13.738;2023-02-25T01:55:47;3.70;99.90
25250;DHT22;13201;51.148;13.738;2023-02-25T01:58:14;3.90;99.90
25250;DHT22;13201;51.148;13.738;2023-02-25T02:00:41;3.90;99.90
25250;DHT22;13201;51.148;13.738;2023-02-25T02:03:08;3.80;99.90
25250;DHT22;13201;51.148;13.738;2023-02-25T02:08:15;3.80;99.90
25250;DHT22;13201;51.148;13.738;2023-02-25T02:10:41;3.80;99.90
25250;DHT22;13201;51.148;13.738;2023-02-25T02:13:07;3.80;99.90
25250;DHT22;13201;51.148;13.738;2023-02-25T02:15:37;4.00;99.90
25250;DHT22;13201;51.148;13.738;2023-02-25T02:18:05;3.90;99.90
25250;DHT22;13201;51.148;13.738;2023-02-25T02:29:19;3.90;99.90
25250;DHT22;13201;51.148;13.738;2023-02-25T02:41:01;4.00;99.90
25250;DHT22;13201;51.148;13.738;2023-02-25T02:46:26;3.90;99.90
25250;DHT22;13201;51.148;13.738;2023-02-25T02:49:02;3.80;99.90
25250;DHT22;13201;51.148;13.738;2023-02-25T02:51:51;3.80;99.90
25250;DHT22;13201;51.148;13.738;2023-02-25T02:54:19;3.80;99.90
25250;DHT22;13201;51.148;13.738;2023-02-25T02:56:47;3.80;99.90
25250;DHT22;13201;51.148;13.738;2023-02-25T02:59:31;3.80;99.90
25250;DHT22;13201;51.148;13.738;2023-02-25T03:02:02;3.80;99.90
25250;DHT22;13201;51.148;13.738;2023-02-25T03:04:33;3.80;99.90
25250;DHT22;13201;51.148;13.738;2023-02-25T03:07:07;3.80;99.90
25250;DHT22;13201;51.148;13.738;2023-02-25T03:12:03;3.70;99.90
25250;DHT22;13201;51.148;13.738;2023-02-25T03:14:29;3.70;99.90
25250;DHT22;13201;51.148;13.738;2023-02-25T03:17:09;3.80;99.90
25250;DHT22;13201;51.148;13.738;2023-02-25T03:19:46;3.60;99.90
25250;DHT22;13201;51.148;13.738;2023-02-25T03:22:20;3.60;99.90
25250;DHT22;13201;51.148;13.738;2023-02-25T03:25:09;3.60;99.90
25250;DHT22;13201;51.148;13.738;2023-02-25T03:27:45;3.70;99.90
25250;DHT22;13201;51.148;13.738;2023-02-25T03:32:54;3.50;99.90
25250;DHT22;13201;51.148;13.738;2023-02-25T03:35:23;3.60;99.90
25250;DHT22;13201;51.148;13.738;2023-02-25T03:37:55;3.50;99.90
25250;DHT22;13201;51.148;13.738;2023-02-25T03:40:24;3.60;99.90
25250;DHT22;13201;51.148;13.738;2023-02-25T03:42:59;3.50;99.90
25250;DHT22;13201;51.148;13.738;2023-02-25T03:45:27;3.50;99.90
25250;DHT22;13201;51.148;13.738;2023-02-25T03:47:54;3.50;99.90
25250;DHT22;13201;51.148;13.738;2023-02-25T03:50:24;3.50;99.90
25250;DHT22;13201;51.148;13.738;2023-02-25T03:52:52;3.60;99.90
25250;DHT22;13201;51.148;13.738;2023-02-25T03:55:18;3.50;99.90
25250;DHT22;13201;51.148;13.738;2023-02-25T03:57:47;3.50;99.90
25250;DHT22;13201;51.148;13.738;2023-02-25T04:02:47;3.40;99.90
25250;DHT22;13201;51.148;13.738;2023-02-25T04:05:15;3.30;99.90
25250;DHT22;13201;51.148;13.738;2023-02-25T04:07:41;3.30;99.90
25250;DHT22;13201;51.148;13.738;2023-02-25T04:10:08;3.20;99.90
25250;DHT22;13201;51.148;13.738;2023-02-25T04:12:35;3.10;99.90
25250;DHT22;13201;51.148;13.738;2023-02-25T04:15:01;3.20;99.90
25250;DHT22;13201;51.148;13.738;2023-02-25T04:17:27;3.20;99.90
25250;DHT22;13201;51.148;13.738;2023-02-25T04:19:52;3.10;99.90
25250;DHT22;13201;51.148;13.738;2023-02-25T04:22:18;3.10;99.90
25250;DHT22;13201;51.148;13.738;2023-02-25T04:24:44;3.10;99.90
25250;DHT22;13201;51.148;13.738;2023-02-25T04:27:09;3.10;99.90
25250;DHT22;13201;51.148;13.738;2023-02-25T04:29:35;3.00;99.90
25250;DHT22;13201;51.148;13.738;2023-02-25T04:32:01;3.00;99.90
25250;DHT22;13201;51.148;13.738;2023-02-25T04:34:26;3.10;99.90
25250;DHT22;13201;51.148;13.738;2023-02-25T04:36:52;3.10;99.90
25250;DHT22;13201;51.148;13.738;2023-02-25T04:39:18;3.00;99.90
25250;DHT22;13201;51.148;13.738;2023-02-25T04:41:44;3.10;99.90
25250;DHT22;13201;51.148;13.738;2023-02-25T04:44:10;3.00;99.90
25250;DHT22;13201;51.148;13.738;2023-02-25T04:46:38;2.90;99.90
25250;DHT22;13201;51.148;13.738;2023-02-25T04:49:05;3.00;99.90
25250;DHT22;13201;51.148;13.738;2023-02-25T04:51:31;2.90;99.90
25250;DHT22;13201;51.148;13.738;2023-02-25T04:53:57;2.90;99.90
25250;DHT22;13201;51.148;13.738;2023-02-25T04:56:23;3.00;99.90
25250;DHT22;13201;51.148;13.738;2023-02-25T04:58:49;3.00;99.90
25250;DHT22;13201;51.148;13.738;2023-02-25T05:01:14;3.00;99.90
25250;DHT22;13201;51.148;13.738;2023-02-25T05:03:40;3.00;99.90
25250;DHT22;13201;51.148;13.738;2023-02-25T05:06:07;2.90;99.90
25250;DHT22;13201;51.148;13.738;2023-02-25T05:08:33;2.90;99.90
25250;DHT22;13201;51.148;13.738;2023-02-25T05:10:59;2.80;99.90
25250;DHT22;13201;51.148;13.738;2023-02-25T05:13:26;2.80;99.90
25250;DHT22;13201;51.148;13.738;2023-02-25T05:15:52;2.90;99.90
25250;DHT22;13201;51.148;13.738;2023-02-25T05:18:18;2.80;99.90
25250;DHT22;13201;51.148;13.738;2023-02-25T05:20:45;2.70;99.90
25250;DHT22;13201;51.148;13.738;2023-02-25T05:23:12;2.80;99.90
25250;DHT22;13201;51.148;13.738;2023-02-25T05:25:38;2.80;99.90
25250;DHT22;13201;51.148;13.738;2023-02-25T05:28:06;2.90;99.90
25250;DHT22;13201;51.148;13.738;2023-02-25T05:30:32;2.80;99.90
25250;DHT22;13201;51.148;13.738;2023-02-25T05:32:58;2.70;99.90
25250;DHT22;13201;51.148;13.738;2023-02-25T05:35:23;2.80;99.90
25250;DHT22;13201;51.148;13.738;2023-02-25T05:37:49;2.70;99.90
25250;DHT22;13201;51.148;13.738;2023-02-25T05:40:15;2.60;99.90
25250;DHT22;13201;51.148;13.738;2023-02-25T05:42:41;2.60;99.90
25250;DHT22;13201;51.148;13.738;2023-02-25T05:45:07;2.60;99.90
25250;DHT22;13201;51.148;13.738;2023-02-25T05:47:34;2.60;99.90
25250;DHT22;13201;51.148;13.738;2023-02-25T05:50:00;2.60;99.90
25250;DHT22;13201;51.148;13.738;2023-02-25T05:52:26;2.50;99.90
25250;DHT22;13201;51.148;13.738;2023-02-25T05:54:51;2.60;99.90
25250;DHT22;13201;51.148;13.738;2023-02-25T05:57:17;2.50;99.90
25250;DHT22;13201;51.148;13.738;2023-02-25T05:59:43;2.50;99.90
25250;DHT22;13201;51.148;13.738;2023-02-25T06:02:09;2.50;99.90
25250;DHT22;13201;51.148;13.738;2023-02-25T06:04:35;2.50;99.90
25250;DHT22;13201;51.148;13.738;2023-02-25T06:07:00;2.40;99.90
25250;DHT22;13201;51.148;13.738;2023-02-25T06:09:27;2.40;99.90
25250;DHT22;13201;51.148;13.738;2023-02-25T06:11:53;2.50;99.90
25250;DHT22;13201;51.148;13.738;2023-02-25T06:14:19;2.50;99.90
25250;DHT22;13201;51.148;13.738;2023-02-25T06:16:45;2.50;99.90
25250;DHT22;13201;51.148;13.738;2023-02-25T06:19:10;2.50;99.90
25250;DHT22;13201;51.148;13.738;2023-02-25T06:21:36;2.40;99.90
25250;DHT22;13201;51.148;13.738;2023-02-25T06:24:03;2.50;99.90
25250;DHT22;13201;51.148;13.738;2023-02-25T06:26:29;2.50;99.90
25250;DHT22;13201;51.148;13.738;2023-02-25T06:28:55;2.40;99.90
25250;DHT22;13201;51.148;13.738;2023-02-25T06:31:22;2.40;99.90
25250;DHT22;13201;51.148;13.738;2023-02-25T06:33:49;2.50;99.90
25250;DHT22;13201;51.148;13.738;2023-02-25T06:36:16;2.50;99.90
25250;DHT22;13201;51.148;13.738;2023-02-25T06:38:42;2.50;99.90
25250;DHT22;13201;51.148;13.738;2023-02-25T06:41:13;2.50;99.90
25250;DHT22;13201;51.148;13.738;2023-02-25T06:43:40;2.60;99.90
25250;DHT22;13201;51.148;13.738;2023-02-25T06:46:08;2.50;99.90
25250;DHT22;13201;51.148;13.738;2023-02-25T06:48:34;2.50;99.90
25250;DHT22;13201;51.148;13.738;2023-02-25T06:50:59;2.60;99.90
25250;DHT22;13201;51.148;13.738;2023-02-25T06:53:26;2.60;99.90
25250;DHT22;13201;51.148;13.738;2023-02-25T06:55:52;2.50;99.90
25250;DHT22;13201;51.148;13.738;2023-02-25T06:58:18;2.70;99.90
25250;DHT22;13201;51.148;13.738;2023-02-25T07:00:43;2.70;99.90
25250;DHT22;13201;51.148;13.738;2023-02-25T07:03:13;2.60;99.90
25250;DHT22;13201;51.148;13.738;2023-02-25T07:05:39;2.60;99.90
25250;DHT22;13201;51.148;13.738;2023-02-25T07:08:04;2.70;99.90
25250;DHT22;13201;51.148;13.738;2023-02-25T07:10:30;2.70;99.90
25250;DHT22;13201;51.148;13.738;2023-02-25T07:12:56;2.70;99.90
25250;DHT22;13201;51.148;13.738;2023-02-25T07:15:22;2.60;99.90
25250;DHT22;13201;51.148;13.738;2023-02-25T07:17:47;2.60;99.90
25250;DHT22;13201;51.148;13.738;2023-02-25T07:20:13;2.60;99.90
25250;DHT22;13201;51.148;13.738;2023-02-25T07:22:39;2.70;99.90
25250;DHT22;13201;51.148;13.738;2023-02-25T07:25:08;2.70;99.90
25250;DHT22;13201;51.148;13.738;2023-02-25T07:27:39;2.70;99.90
25250;DHT22;13201;51.148;13.738;2023-02-25T07:30:05;2.70;99.90
25250;DHT22;13201;51.148;13.738;2023-02-25T07:32:31;2.70;99.90
25250;DHT22;13201;51.148;13.738;2023-02-25T07:34:57;2.70;99.90
25250;DHT22;13201;51.148;13.738;2023-02-25T07:37:23;2.70;99.90
25250;DHT22;13201;51.148;13.738;2023-02-25T07:39:48;2.80;99.90
25250;DHT22;13201;51.148;13.738;2023-02-25T07:42:14;2.90;99.90
25250;DHT22;13201;51.148;13.738;2023-02-25T07:44:39;2.80;99.90
25250;DHT22;13201;51.148;13.738;2023-02-25T07:47:05;2.80;99.90
25250;DHT22;13201;51.148;13.738;2023-02-25T07:49:31;2.80;99.90
25250;DHT22;13201;51.148;13.738;2023-02-25T07:51:56;2.90;99.90
25250;DHT22;13201;51.148;13.738;2023-02-25T07:54:22;2.80;99.90
25250;DHT22;13201;51.148;13.738;2023-02-25T07:56:48;2.80;99.90
25250;DHT22;13201;51.148;13.738;2023-02-25T07:59:17;2.90;99.90
25250;DHT22;13201;51.148;13.738;2023-02-25T08:01:43;2.70;99.90
25250;DHT22;13201;51.148;13.738;2023-02-25T08:04:09;2.80;99.90
25250;DHT22;13201;51.148;13.738;2023-02-25T08:06:38;2.80;99.90
25250;DHT22;13201;51.148;13.738;2023-02-25T08:09:05;2.80;99.90
25250;DHT22;13201;51.148;13.738;2023-02-25T08:11:31;2.80;99.90
25250;DHT22;13201;51.148;13.738;2023-02-25T08:14:00;2.80;99.90
25250;DHT22;13201;51.148;13.738;2023-02-25T08:16:26;2.80;99.90
25250;DHT22;13201;51.148;13.738;2023-02-25T08:18:52;2.80;99.90
25250;DHT22;13201;51.148;13.738;2023-02-25T08:21:19;2.70;99.90
25250;DHT22;13201;51.148;13.738;2023-02-25T08:23:49;2.80;99.90
25250;DHT22;13201;51.148;13.738;2023-02-25T08:26:15;2.80;99.90
25250;DHT22;13201;51.148;13.738;2023-02-25T08:28:47;2.80;99.90
25250;DHT22;13201;51.148;13.738;2023-02-25T08:31:14;2.70;99.90
25250;DHT22;13201;51.148;13.738;2023-02-25T08:33:41;2.80;99.90
25250;DHT22;13201;51.148;13.738;2023-02-25T08:36:24;2.80;99.90
25250;DHT22;13201;51.148;13.738;2023-02-25T08:38:51;2.70;99.90
25250;DHT22;13201;51.148;13.738;2023-02-25T08:41:19;2.70;99.90
25250;DHT22;13201;51.148;13.738;2023-02-25T08:43:48;2.70;99.90
25250;DHT22;13201;51.148;13.738;2023-02-25T08:46:14;2.80;99.90
25250;DHT22;13201;51.148;13.738;2023-02-25T08:48:40;2.70;99.90
25250;DHT22;13201;51.148;13.738;2023-02-25T08:51:07;2.80;99.90
25250;DHT22;13201;51.148;13.738;2023-02-25T08:53:37;2.90;99.90
25250;DHT22;13201;51.148;13.738;2023-02-25T08:56:08;2.80;99.90
25250;DHT22;13201;51.148;13.738;2023-02-25T08:58:34;2.90;99.90
25250;DHT22;13201;51.148;13.738;2023-02-25T09:01:00;3.00;99.90
25250;DHT22;13201;51.148;13.738;2023-02-25T09:03:31;3.00;99.90
25250;DHT22;13201;51.148;13.738;2023-02-25T09:05:57;3.00;99.90
25250;DHT22;13201;51.148;13.738;2023-02-25T09:08:22;3.20;99.90
25250;DHT22;13201;51.148;13.738;2023-02-25T09:10:48;3.40;99.90
25250;DHT22;13201;51.148;13.738;2023-02-25T09:13:14;3.40;99.90
25250;DHT22;13201;51.148;13.738;2023-02-25T09:15:40;3.30;99.90
25250;DHT22;13201;51.148;13.738;2023-02-25T09:18:05;3.30;99.90
25250;DHT22;13201;51.148;13.738;2023-02-25T09:20:31;3.40;99.90
25250;DHT22;13201;51.148;13.738;2023-02-25T09:22:59;3.40;99.90
25250;DHT22;13201;51.148;13.738;2023-02-25T09:25:25;3.40;99.90
25250;DHT22;13201;51.148;13.738;2023-02-25T09:27:51;3.30;99.90
25250;DHT22;13201;51.148;13.738;2023-02-25T09:30:17;3.40;99.90
25250;DHT22;13201;51.148;13.738;2023-02-25T09:32:42;3.40;99.90
25250;DHT22;13201;51.148;13.738;2023-02-25T09:35:09;3.30;99.90
25250;DHT22;13201;51.148;13.738;2023-02-25T09:37:37;3.20;99.90
25250;DHT22;13201;51.148;13.738;2023-02-25T09:40:03;3.30;99.90
25250;DHT22;13201;51.148;13.738;2023-02-25T09:45:18;3.10;99.90
25250;DHT22;13201;51.148;13.738;2023-02-25T09:47:58;3.10;99.90
25250;DHT22;13201;51.148;13.738;2023-02-25T09:50:25;3.00;99.90
25250;DHT22;13201;51.148;13.738;2023-02-25T09:57:55;3.00;99.90
25250;DHT22;13201;51.148;13.738;2023-02-25T10:00:22;3.00;99.90
25250;DHT22;13201;51.148;13.738;2023-02-25T10:02:50;3.00;99.90
25250;DHT22;13201;51.148;13.738;2023-02-25T10:11:36;3.00;99.90
25250;DHT22;13201;51.148;13.738;2023-02-25T10:14:35;2.90;99.90
25250;DHT22;13201;51.148;13.738;2023-02-25T10:19:41;3.00;99.90
25250;DHT22;13201;51.148;13.738;2023-02-25T10:22:38;2.80;99.90
25250;DHT22;13201;51.148;13.738;2023-02-25T10:25:16;2.90;99.90
25250;DHT22;13201;51.148;13.738;2023-02-25T10:27:50;2.90;99.90
25250;DHT22;13201;51.148;13.738;2023-02-25T10:33:41;2.80;99.90
25250;DHT22;13201;51.148;13.738;2023-02-25T10:36:08;2.80;99.90
25250;DHT22;13201;51.148;13.738;2023-02-25T10:38:41;2.80;99.90
25250;DHT22;13201;51.148;13.738;2023-02-25T10:41:10;2.80;99.90
25250;DHT22;13201;51.148;13.738;2023-02-25T10:43:36;2.70;99.90
25250;DHT22;13201;51.148;13.738;2023-02-25T10:46:22;2.80;99.90
25250;DHT22;13201;51.148;13.738;2023-02-25T10:48:55;2.70;99.90
25250;DHT22;13201;51.148;13.738;2023-02-25T10:51:21;2.80;99.90
25250;DHT22;13201;51.148;13.738;2023-02-25T10:56:43;2.60;99.90
25250;DHT22;13201;51.148;13.738;2023-02-25T10:59:30;2.80;99.90
25250;DHT22;13201;51.148;13.738;2023-02-25T11:01:59;2.70;99.90
25250;DHT22;13201;51.148;13.738;2023-02-25T11:04:35;2.70;99.90
25250;DHT22;13201;51.148;13.738;2023-02-25T11:07:29;2.70;99.90
25250;DHT22;13201;51.148;13.738;2023-02-25T11:10:20;2.70;99.90
25250;DHT22;13201;51.148;13.738;2023-02-25T11:12:51;2.70;99.90
25250;DHT22;13201;51.148;13.738;2023-02-25T11:15:41;2.70;99.90
25250;DHT22;13201;51.148;13.738;2023-02-25T11:18:22;2.70;99.90
25250;DHT22;13201;51.148;13.738;2023-02-25T11:21:04;2.80;99.90
25250;DHT22;13201;51.148;13.738;2023-02-25T11:23:47;2.90;99.90
25250;DHT22;13201;51.148;13.738;2023-02-25T11:26:32;2.90;99.90
25250;DHT22;13201;51.148;13.738;2023-02-25T11:32:11;3.20;99.90
25250;DHT22;13201;51.148;13.738;2023-02-25T11:34:54;3.00;99.90
25250;DHT22;13201;51.148;13.738;2023-02-25T11:37:36;3.00;99.90
25250;DHT22;13201;51.148;13.738;2023-02-25T11:40:22;2.80;99.90
25250;DHT22;13201;51.148;13.738;2023-02-25T11:45:45;2.90;99.90
25250;DHT22;13201;51.148;13.738;2023-02-25T11:48:24;3.10;99.90
25250;DHT22;13201;51.148;13.738;2023-02-25T11:51:26;3.00;99.90
25250;DHT22;13201;51.148;13.738;2023-02-25T11:56:43;3.00;99.90
25250;DHT22;13201;51.148;13.738;2023-02-25T12:10:47;3.40;99.90
25250;DHT22;13201;51.148;13.738;2023-02-25T12:34:08;3.20;99.90
25250;DHT22;13201;51.148;13.738;2023-02-25T13:18:26;3.10;99.90
25250;DHT22;13201;51.148;13.738;2023-02-25T13:26:53;3.00;99.90
25250;DHT22;13201;51.148;13.738;2023-02-25T13:43:28;2.80;99.90
25250;DHT22;13201;51.148;13.738;2023-02-25T13:57:46;2.90;99.90
25250;DHT22;13201;51.148;13.738;2023-02-25T14:06:34;2.90;99.90
25250;DHT22;13201;51.148;13.738;2023-02-25T14:09:41;2.90;99.90
25250;DHT22;13201;51.148;13.738;2023-02-25T14:12:20;2.90;99.90
25250;DHT22;13201;51.148;13.738;2023-02-25T14:26:21;2.40;99.90
25250;DHT22;13201;51.148;13.738;2023-02-25T14:53:52;2.10;99.90
25250;DHT22;13201;51.148;13.738;2023-02-25T14:59:36;2.00;99.90
25250;DHT22;13201;51.148;13.738;2023-02-25T15:10:28;2.40;99.90
25250;DHT22;13201;51.148;13.738;2023-02-25T15:20:56;2.50;99.90
25250;DHT22;13201;51.148;13.738;2023-02-25T15:23:41;2.40;99.90
25250;DHT22;13201;51.148;13.738;2023-02-25T15:26:43;2.40;99.90
25250;DHT22;13201;51.148;13.738;2023-02-25T15:32:22;2.10;99.90
25250;DHT22;13201;51.148;13.738;2023-02-25T15:37:33;1.70;99.90
25250;DHT22;13201;51.148;13.738;2023-02-25T15:42:56;1.70;99.90
25250;DHT22;13201;51.148;13.738;2023-02-25T15:55:48;1.80;99.90
25250;DHT22;13201;51.148;13.738;2023-02-25T16:00:54;1.90;99.90
25250;DHT22;13201;51.148;13.738;2023-02-25T16:06:10;1.90;99.90
25250;DHT22;13201;51.148;13.738;2023-02-25T16:08:43;1.90;99.90
25250;DHT22;13201;51.148;13.738;2023-02-25T16:11:34;1.80;99.90
25250;DHT22;13201;51.148;13.738;2023-02-25T16:19:27;1.80;99.90
25250;DHT22;13201;51.148;13.738;2023-02-25T16:21:56;1.70;99.90
25250;DHT22;13201;51.148;13.738;2023-02-25T16:24:22;1.70;99.90
25250;DHT22;13201;51.148;13.738;2023-02-25T16:27:02;1.70;99.90
25250;DHT22;13201;51.148;13.738;2023-02-25T16:40:15;1.80;99.90
25250;DHT22;13201;51.148;13.738;2023-02-25T16:42:42;1.80;99.90
25250;DHT22;13201;51.148;13.738;2023-02-25T16:45:21;1.70;99.90
25250;DHT22;13201;51.148;13.738;2023-02-25T16:48:00;1.70;99.90
25250;DHT22;13201;51.148;13.738;2023-02-25T16:50:29;1.60;99.90
25250;DHT22;13201;51.148;13.738;2023-02-25T16:52:56;1.60;99.90
25250;DHT22;13201;51.148;13.738;2023-02-25T16:55:25;1.50;99.90
25250;DHT22;13201;51.148;13.738;2023-02-25T17:00:26;1.60;99.90
25250;DHT22;13201;51.148;13.738;2023-02-25T17:03:00;1.60;99.90
25250;DHT22;13201;51.148;13.738;2023-02-25T17:05:36;1.40;99.90
25250;DHT22;13201;51.148;13.738;2023-02-25T17:08:12;1.30;99.90
25250;DHT22;13201;51.148;13.738;2023-02-25T17:10:46;1.30;99.90
25250;DHT22;13201;51.148;13.738;2023-02-25T17:13:27;1.30;99.90
25250;DHT22;13201;51.148;13.738;2023-02-25T17:15:54;1.30;99.90
25250;DHT22;13201;51.148;13.738;2023-02-25T17:18:26;1.30;99.90
25250;DHT22;13201;51.148;13.738;2023-02-25T17:23:27;1.50;99.90
25250;DHT22;13201;51.148;13.738;2023-02-25T17:25:53;1.50;99.90
25250;DHT22;13201;51.148;13.738;2023-02-25T17:28:25;1.50;99.90
25250;DHT22;13201;51.148;13.738;2023-02-25T17:31:04;1.30;99.90
25250;DHT22;13201;51.148;13.738;2023-02-25T17:33:30;1.30;99.90
25250;DHT22;13201;51.148;13.738;2023-02-25T17:36:00;1.20;99.90
25250;DHT22;13201;51.148;13.738;2023-02-25T17:38:27;1.20;99.90
25250;DHT22;13201;51.148;13.738;2023-02-25T17:40:54;1.20;99.90
25250;DHT22;13201;51.148;13.738;2023-02-25T17:43:45;1.20;99.90
25250;DHT22;13201;51.148;13.738;2023-02-25T17:46:14;1.20;99.90
25250;DHT22;13201;51.148;13.738;2023-02-25T17:48:42;1.30;99.90
25250;DHT22;13201;51.148;13.738;2023-02-25T17:51:13;1.40;99.90
25250;DHT22;13201;51.148;13.738;2023-02-25T17:53:48;1.50;99.90
25250;DHT22;13201;51.148;13.738;2023-02-25T17:56:19;1.40;99.90
25250;DHT22;13201;51.148;13.738;2023-02-25T17:58:50;1.20;99.90
25250;DHT22;13201;51.148;13.738;2023-02-25T18:01:52;1.40;99.90
25250;DHT22;13201;51.148;13.738;2023-02-25T18:04:34;1.50;99.90
25250;DHT22;13201;51.148;13.738;2023-02-25T18:07:20;1.40;99.90
25250;DHT22;13201;51.148;13.738;2023-02-25T18:09:46;1.60;99.90
25250;DHT22;13201;51.148;13.738;2023-02-25T18:14:44;1.50;99.90
25250;DHT22;13201;51.148;13.738;2023-02-25T18:17:26;1.40;99.90
25250;DHT22;13201;51.148;13.738;2023-02-25T18:19:55;1.60;99.90
25250;DHT22;13201;51.148;13.738;2023-02-25T18:22:29;1.60;99.90
25250;DHT22;13201;51.148;13.738;2023-02-25T18:24:58;1.60;99.90
25250;DHT22;13201;51.148;13.738;2023-02-25T18:27:26;1.70;99.90
25250;DHT22;13201;51.148;13.738;2023-02-25T18:29:58;1.60;99.90
25250;DHT22;13201;51.148;13.738;2023-02-25T18:32:26;1.60;99.90
25250;DHT22;13201;51.148;13.738;2023-02-25T18:34:52;1.60;99.90
25250;DHT22;13201;51.148;13.738;2023-02-25T18:37:17;1.50;99.90
25250;DHT22;13201;51.148;13.738;2023-02-25T18:39:45;1.50;99.90
25250;DHT22;13201;51.148;13.738;2023-02-25T18:42:13;1.50;99.90
25250;DHT22;13201;51.148;13.738;2023-02-25T18:44:41;1.60;99.90
25250;DHT22;13201;51.148;13.738;2023-02-25T18:47:07;1.50;99.90
25250;DHT22;13201;51.148;13.738;2023-02-25T18:49:33;1.60;99.90
25250;DHT22;13201;51.148;13.738;2023-02-25T18:51:58;1.60;99.90
25250;DHT22;13201;51.148;13.738;2023-02-25T18:54:24;1.60;99.90
25250;DHT22;13201;51.148;13.738;2023-02-25T18:56:50;1.60;99.90
25250;DHT22;13201;51.148;13.738;2023-02-25T18:59:15;1.60;99.90
25250;DHT22;13201;51.148;13.738;2023-02-25T19:01:42;1.50;99.90
25250;DHT22;13201;51.148;13.738;2023-02-25T19:04:15;1.40;99.90
25250;DHT22;13201;51.148;13.738;2023-02-25T19:06:41;1.40;99.90
25250;DHT22;13201;51.148;13.738;2023-02-25T19:09:07;1.40;99.90
25250;DHT22;13201;51.148;13.738;2023-02-25T19:11:34;1.40;99.90
25250;DHT22;13201;51.148;13.738;2023-02-25T19:14:02;1.40;99.90
25250;DHT22;13201;51.148;13.738;2023-02-25T19:16:28;1.40;99.90
25250;DHT22;13201;51.148;13.738;2023-02-25T19:18:54;1.30;99.90
25250;DHT22;13201;51.148;13.738;2023-02-25T19:21:20;1.30;99.90
25250;DHT22;13201;51.148;13.738;2023-02-25T19:23:47;1.30;99.90
25250;DHT22;13201;51.148;13.738;2023-02-25T19:26:15;1.20;99.90
25250;DHT22;13201;51.148;13.738;2023-02-25T19:28:41;1.20;99.90
25250;DHT22;13201;51.148;13.738;2023-02-25T19:31:07;1.20;99.90
25250;DHT22;13201;51.148;13.738;2023-02-25T19:33:33;1.20;99.90
25250;DHT22;13201;51.148;13.738;2023-02-25T19:36:02;1.20;99.90
25250;DHT22;13201;51.148;13.738;2023-02-25T19:38:28;1.10;99.90
25250;DHT22;13201;51.148;13.738;2023-02-25T19:40:59;1.10;99.90
25250;DHT22;13201;51.148;13.738;2023-02-25T19:43:25;1.10;99.90
25250;DHT22;13201;51.148;13.738;2023-02-25T19:45:51;1.20;99.90
25250;DHT22;13201;51.148;13.738;2023-02-25T19:48:18;1.10;99.90
25250;DHT22;13201;51.148;13.738;2023-02-25T19:50:44;1.20;99.90
25250;DHT22;13201;51.148;13.738;2023-02-25T19:53:10;1.20;99.90
25250;DHT22;13201;51.148;13.738;2023-02-25T19:55:36;1.00;99.90
25250;DHT22;13201;51.148;13.738;2023-02-25T19:58:03;1.10;99.90
25250;DHT22;13201;51.148;13.738;2023-02-25T20:00:29;1.00;99.90
25250;DHT22;13201;51.148;13.738;2023-02-25T20:02:55;1.00;99.90
25250;DHT22;13201;51.148;13.738;2023-02-25T20:05:22;1.00;99.90
25250;DHT22;13201;51.148;13.738;2023-02-25T20:07:48;1.00;99.90
25250;DHT22;13201;51.148;13.738;2023-02-25T20:10:15;1.00;99.90
25250;DHT22;13201;51.148;13.738;2023-02-25T20:12:42;1.10;99.90
25250;DHT22;13201;51.148;13.738;2023-02-25T20:15:09;1.10;99.90
25250;DHT22;13201;51.148;13.738;2023-02-25T20:17:36;0.90;99.90
25250;DHT22;13201;51.148;13.738;2023-02-25T20:20:04;1.00;99.90
25250;DHT22;13201;51.148;13.738;2023-02-25T20:22:31;1.00;99.90
25250;DHT22;13201;51.148;13.738;2023-02-25T20:24:56;1.00;99.90
25250;DHT22;13201;51.148;13.738;2023-02-25T20:27:22;0.90;99.90
25250;DHT22;13201;51.148;13.738;2023-02-25T20:29:48;0.90;99.90
25250;DHT22;13201;51.148;13.738;2023-02-25T20:32:13;0.90;99.90
25250;DHT22;13201;51.148;13.738;2023-02-25T20:34:39;0.90;99.90
25250;DHT22;13201;51.148;13.738;2023-02-25T20:37:13;1.00;99.90
25250;DHT22;13201;51.148;13.738;2023-02-25T20:42:20;0.80;99.90
25250;DHT22;13201;51.148;13.738;2023-02-25T20:44:48;0.70;99.90
25250;DHT22;13201;51.148;13.738;2023-02-25T20:47:21;0.90;99.90
25250;DHT22;13201;51.148;13.738;2023-02-25T20:49:47;0.90;99.90